Time;durP1;ratioP1;P1;durP2;ratioP2;P2;SDS_P1;SDS_P2;PMS_P1;PMS_P2;Temp;Humidity;BMP_temperature;BMP_pressure;BME280_temperature;BME280_humidity;BME280_pressure;Samples;Min_cycle;Max_cycle;Signal;HPM_P1;HPM_P2
2021/06/20 00:01:40;;;;;;;9.93;2.10;;;;;;;;;;4234127;33;20547;-71
2021/06/20 00:04:06;;;;;;;2.97;2.00;;;;;;;;;;4247181;33;20093;-71
2021/06/20 00:06:34;;;;;;;2.15;1.95;;;;;;;;;;4247231;33;20208;-71
2021/06/20 00:09:04;;;;;;;3.83;1.77;;;;;;;;;;4234195;33;20500;-71
2021/06/20 00:11:30;;;;;;;6.78;2.00;;;;;;;;;;4247175;33;20212;-71
2021/06/20 00:13:56;;;;;;;3.28;1.90;;;;;;;;;;4234053;33;20139;-71
2021/06/20 00:44:50;;;;;;;3.58;2.72;;;;;;;;;;4435302;28;20070;-69
2021/06/20 00:47:17;;;;;;;4.45;2.30;;;;;;;;;;4260944;33;20115;-69
2021/06/20 00:49:43;;;;;;;3.70;2.25;;;;;;;;;;4260721;33;20101;-68
2021/06/20 00:52:08;;;;;;;2.83;2.15;;;;;;;;;;4260867;33;20134;-68
2021/06/20 00:54:34;;;;;;;2.45;1.95;;;;;;;;;;4260925;33;20211;-69
2021/06/20 00:57:01;;;;;;;4.20;2.10;;;;;;;;;;4260860;33;20128;-69
2021/06/20 00:59:28;;;;;;;2.25;1.85;;;;;;;;;;4260872;33;20121;-69
2021/06/20 01:01:54;;;;;;;3.30;2.08;;;;;;;;;;4247605;33;20097;-69
2021/06/20 01:04:19;;;;;;;3.35;2.20;;;;;;;;;;4260791;33;20283;-68
2021/06/20 01:06:46;;;;;;;2.75;2.50;;;;;;;;;;4260836;33;20519;-68
2021/06/20 01:09:12;;;;;;;3.53;2.40;;;;;;;;;;4260602;33;20658;-68
2021/06/20 01:11:37;;;;;;;4.40;2.03;;;;;;;;;;4260795;33;20136;-68
2021/06/20 01:14:03;;;;;;;8.02;2.35;;;;;;;;;;4260638;33;20135;-68
2021/06/20 01:16:30;;;;;;;2.55;1.95;;;;;;;;;;4236034;33;20119;-69
2021/06/20 01:18:56;;;;;;;7.90;2.50;;;;;;;;;;4260698;33;20219;-69
2021/06/20 01:21:22;;;;;;;3.33;1.75;;;;;;;;;;4247794;33;20207;-69
2021/06/20 01:23:48;;;;;;;2.72;1.95;;;;;;;;;;4260504;33;20311;-69
2021/06/20 01:26:13;;;;;;;3.30;1.98;;;;;;;;;;4247000;33;20104;-69
2021/06/20 01:28:50;;;;;;;2.95;2.25;;;;;;;;;;4260556;33;20116;-69
2021/06/20 01:31:17;;;;;;;4.03;2.20;;;;;;;;;;4248861;33;20213;-68
2021/06/20 01:33:43;;;;;;;3.65;2.80;;;;;;;;;;4260708;33;20116;-68
2021/06/20 01:36:10;;;;;;;4.85;2.40;;;;;;;;;;4247573;33;20108;-70
2021/06/20 01:38:36;;;;;;;4.32;2.40;;;;;;;;;;4260779;33;20576;-70
2021/06/20 01:41:02;;;;;;;4.00;2.25;;;;;;;;;;4260466;33;20132;-70
2021/06/20 01:43:28;;;;;;;4.95;2.05;;;;;;;;;;4260145;33;20136;-70
2021/06/20 01:45:54;;;;;;;3.08;2.30;;;;;;;;;;4272244;33;20187;-69
2021/06/20 01:48:20;;;;;;;6.28;2.22;;;;;;;;;;4249735;33;20169;-70
2021/06/20 01:50:46;;;;;;;8.13;2.35;;;;;;;;;;4274734;33;20554;-70
2021/06/20 01:53:13;;;;;;;4.75;2.33;;;;;;;;;;4274531;33;20136;-70
2021/06/20 01:55:40;;;;;;;4.82;2.55;;;;;;;;;;4274613;33;20096;-69
2021/06/20 01:58:06;;;;;;;7.45;2.17;;;;;;;;;;4274493;33;20148;-69
2021/06/20 02:00:33;;;;;;;10.65;2.37;;;;;;;;;;4261419;33;20108;-70
2021/06/20 02:03:07;;;;;;;5.40;2.15;;;;;;;;;;4261172;33;20275;-70
2021/06/20 02:05:33;;;;;;;5.22;2.25;;;;;;;;;;4261140;33;20202;-70
2021/06/20 02:07:59;;;;;;;2.40;1.90;;;;;;;;;;4274556;33;20459;-69
2021/06/20 02:10:25;;;;;;;13.45;2.70;;;;;;;;;;4274733;33;20143;-69
2021/06/20 02:12:52;;;;;;;6.22;2.10;;;;;;;;;;4274689;33;20130;-69
2021/06/20 02:15:18;;;;;;;6.18;2.80;;;;;;;;;;4274357;33;20282;-69
2021/06/20 02:17:47;;;;;;;4.68;2.40;;;;;;;;;;4274736;33;20535;-69
2021/06/20 02:20:15;;;;;;;5.25;2.25;;;;;;;;;;4261296;33;20204;-69
2021/06/20 02:22:42;;;;;;;9.70;2.65;;;;;;;;;;4260169;33;20112;-69
2021/06/20 02:25:09;;;;;;;4.62;2.12;;;;;;;;;;4259780;33;20552;-69
2021/06/20 02:27:36;;;;;;;2.87;2.20;;;;;;;;;;4260022;33;20135;-70
2021/06/20 02:30:02;;;;;;;4.62;2.10;;;;;;;;;;4246805;33;20104;-69
2021/06/20 02:32:28;;;;;;;3.45;2.47;;;;;;;;;;4260051;33;20235;-69
2021/06/20 02:34:54;;;;;;;7.30;2.50;;;;;;;;;;4260214;33;20420;-70
2021/06/20 02:37:20;;;;;;;3.28;2.33;;;;;;;;;;4260488;33;20112;-69
2021/06/20 02:39:47;;;;;;;5.43;2.75;;;;;;;;;;4261926;33;20112;-69
2021/06/20 02:42:14;;;;;;;5.43;2.75;;;;;;;;;;4262045;33;20116;-69
2021/06/20 02:44:40;;;;;;;3.28;2.35;;;;;;;;;;4246277;33;20191;-69
2021/06/20 02:47:06;;;;;;;4.43;2.30;;;;;;;;;;4274609;33;20479;-69
2021/06/20 02:49:33;;;;;;;2.97;2.58;;;;;;;;;;4276400;33;20103;-69
2021/06/20 02:51:59;;;;;;;4.07;2.22;;;;;;;;;;4276274;33;20122;-69
2021/06/20 02:54:25;;;;;;;3.80;2.30;;;;;;;;;;4263070;33;20104;-69
2021/06/20 02:56:51;;;;;;;3.47;2.58;;;;;;;;;;4276471;33;20142;-69
2021/06/20 02:59:17;;;;;;;6.65;2.53;;;;;;;;;;4276508;33;20179;-69
2021/06/20 03:01:43;;;;;;;4.87;2.45;;;;;;;;;;4276478;33;20444;-69
2021/06/20 03:04:10;;;;;;;3.90;3.15;;;;;;;;;;4276048;33;20123;-69
2021/06/20 03:06:36;;;;;;;3.53;2.60;;;;;;;;;;4276154;33;20227;-69
2021/06/20 03:09:03;;;;;;;4.87;2.62;;;;;;;;;;4262759;33;20210;-69
2021/06/20 03:11:29;;;;;;;3.05;2.65;;;;;;;;;;4276379;33;20135;-70
2021/06/20 03:13:55;;;;;;;3.10;2.30;;;;;;;;;;4276126;33;20123;-69
2021/06/20 03:16:21;;;;;;;4.45;3.10;;;;;;;;;;4263026;33;20139;-69
2021/06/20 03:18:47;;;;;;;4.00;2.40;;;;;;;;;;4276018;33;20201;-69
2021/06/20 03:21:14;;;;;;;6.18;2.62;;;;;;;;;;4263039;33;20131;-73
2021/06/20 03:23:40;;;;;;;3.22;2.58;;;;;;;;;;4262709;33;20516;-69
2021/06/20 03:26:06;;;;;;;4.40;3.10;;;;;;;;;;4276114;33;20136;-69
2021/06/20 03:28:32;;;;;;;3.37;2.70;;;;;;;;;;4275849;33;20199;-69
2021/06/20 03:30:58;;;;;;;4.55;2.70;;;;;;;;;;4276023;33;20535;-69
2021/06/20 03:33:24;;;;;;;5.30;2.72;;;;;;;;;;4275824;33;20279;-69
2021/06/20 03:35:49;;;;;;;8.18;3.47;;;;;;;;;;4275936;33;20588;-69
2021/06/20 03:38:15;;;;;;;4.40;2.92;;;;;;;;;;4275800;33;20129;-69
2021/06/20 03:40:41;;;;;;;7.25;2.90;;;;;;;;;;4275909;33;20088;-69
2021/06/20 03:43:07;;;;;;;4.82;2.65;;;;;;;;;;4275472;33;20183;-69
2021/06/20 03:45:33;;;;;;;3.87;2.83;;;;;;;;;;4262438;33;20550;-69
2021/06/20 03:47:59;;;;;;;4.97;2.95;;;;;;;;;;4275380;33;20124;-69
2021/06/20 03:50:26;;;;;;;6.18;2.90;;;;;;;;;;4275743;33;20539;-69
2021/06/20 03:52:52;;;;;;;8.25;3.83;;;;;;;;;;4275725;33;20444;-68
2021/06/20 03:55:18;;;;;;;4.50;3.10;;;;;;;;;;4275586;33;20135;-69
2021/06/20 03:57:44;;;;;;;4.97;2.50;;;;;;;;;;4262579;33;20436;-68
2021/06/20 04:00:11;;;;;;;7.15;2.85;;;;;;;;;;4275626;33;20476;-69
2021/06/20 04:02:37;;;;;;;3.75;2.80;;;;;;;;;;4275725;33;20102;-69
2021/06/20 04:05:03;;;;;;;9.43;4.72;;;;;;;;;;4275598;33;20127;-69
2021/06/20 04:07:29;;;;;;;3.40;2.55;;;;;;;;;;4262642;33;20119;-69
2021/06/20 04:09:55;;;;;;;4.85;2.92;;;;;;;;;;4275389;33;20170;-69
2021/06/20 04:12:21;;;;;;;4.22;2.62;;;;;;;;;;4275808;33;20120;-69
2021/06/20 04:14:47;;;;;;;6.60;3.00;;;;;;;;;;4275648;33;20104;-69
2021/06/20 04:17:13;;;;;;;6.78;2.80;;;;;;;;;;4262317;33;20143;-69
2021/06/20 04:19:39;;;;;;;3.70;3.08;;;;;;;;;;4275342;33;20119;-69
2021/06/20 04:22:05;;;;;;;6.62;2.90;;;;;;;;;;4275480;33;20119;-69
2021/06/20 04:24:31;;;;;;;5.78;2.65;;;;;;;;;;4275534;33;20127;-69
2021/06/20 04:26:57;;;;;;;5.10;3.15;;;;;;;;;;4275388;33;20124;-69
2021/06/20 04:29:23;;;;;;;9.38;2.87;;;;;;;;;;4262320;33;20127;-69
2021/06/20 04:31:49;;;;;;;7.60;2.90;;;;;;;;;;4262422;33;20141;-69
2021/06/20 04:34:15;;;;;;;5.03;3.00;;;;;;;;;;4275469;33;20198;-69
2021/06/20 04:36:41;;;;;;;7.10;2.90;;;;;;;;;;4275522;33;20110;-69
2021/06/20 04:39:08;;;;;;;5.78;3.00;;;;;;;;;;4275335;33;20183;-69
2021/06/20 04:41:35;;;;;;;4.37;3.15;;;;;;;;;;4275508;33;20123;-69
2021/06/20 04:44:03;;;;;;;5.28;3.15;;;;;;;;;;4274932;33;20207;-69
2021/06/20 04:46:36;;;;;;;4.43;3.12;;;;;;;;;;4275180;33;20190;-69
2021/06/20 04:49:07;;;;;;;6.87;2.95;;;;;;;;;;4275104;33;20202;-69
2021/06/20 04:51:40;;;;;;;6.90;3.03;;;;;;;;;;4275249;33;20531;-69
2021/06/20 04:54:07;;;;;;;4.07;2.92;;;;;;;;;;4262013;33;20171;-69
2021/06/20 04:56:33;;;;;;;4.60;2.85;;;;;;;;;;4262133;33;20202;-69
2021/06/20 04:58:59;;;;;;;4.45;2.28;;;;;;;;;;4261983;33;20123;-69
2021/06/20 05:01:25;;;;;;;3.87;3.03;;;;;;;;;;4274426;33;20147;-69
2021/06/20 05:03:52;;;;;;;7.00;3.20;;;;;;;;;;4274988;33;20610;-69
2021/06/20 05:06:18;;;;;;;4.35;3.40;;;;;;;;;;4275199;33;20214;-69
2021/06/20 05:08:44;;;;;;;3.95;3.08;;;;;;;;;;4274870;33;20523;-69
2021/06/20 05:11:10;;;;;;;6.47;3.22;;;;;;;;;;4275272;33;20131;-69
2021/06/20 05:13:36;;;;;;;6.10;3.47;;;;;;;;;;4275053;33;20092;-70
2021/06/20 05:16:03;;;;;;;4.43;3.00;;;;;;;;;;4274950;33;20218;-69
2021/06/20 05:18:29;;;;;;;5.70;2.80;;;;;;;;;;4274946;33;20134;-70
2021/06/20 05:20:55;;;;;;;13.73;3.30;;;;;;;;;;4274999;33;20115;-70
2021/06/20 05:23:21;;;;;;;6.87;3.62;;;;;;;;;;4275126;33;20137;-70
2021/06/20 05:25:47;;;;;;;7.18;3.20;;;;;;;;;;4274915;33;20599;-69
2021/06/20 05:28:13;;;;;;;4.70;3.15;;;;;;;;;;4274951;33;20474;-69
2021/06/20 05:30:39;;;;;;;6.12;3.33;;;;;;;;;;4274942;33;20451;-69
2021/06/20 05:33:05;;;;;;;3.45;3.15;;;;;;;;;;4274719;33;20139;-69
2021/06/20 05:35:31;;;;;;;5.95;3.33;;;;;;;;;;4275102;33;20120;-69
2021/06/20 05:37:57;;;;;;;3.85;3.25;;;;;;;;;;4249695;33;20131;-69
2021/06/20 05:40:23;;;;;;;4.40;3.10;;;;;;;;;;4275077;33;20111;-69
2021/06/20 05:42:49;;;;;;;6.72;3.15;;;;;;;;;;4274649;33;20100;-69
2021/06/20 05:45:15;;;;;;;3.08;2.75;;;;;;;;;;4274595;33;20127;-69
2021/06/20 05:47:41;;;;;;;6.90;3.47;;;;;;;;;;4275014;33;20447;-69
2021/06/20 05:50:07;;;;;;;7.75;4.20;;;;;;;;;;4274816;33;20103;-69
2021/06/20 05:52:33;;;;;;;9.18;3.45;;;;;;;;;;4274791;33;20504;-69
2021/06/20 05:54:59;;;;;;;3.17;2.87;;;;;;;;;;4274604;33;20104;-70
2021/06/20 05:57:25;;;;;;;4.85;3.12;;;;;;;;;;4274667;33;20123;-69
2021/06/20 05:59:51;;;;;;;2.92;2.53;;;;;;;;;;4274515;33;20115;-69
2021/06/20 06:02:17;;;;;;;4.20;3.55;;;;;;;;;;4274548;33;20119;-70
2021/06/20 06:04:43;;;;;;;6.15;3.33;;;;;;;;;;4274435;33;20120;-70
2021/06/20 06:07:09;;;;;;;3.97;3.20;;;;;;;;;;4274382;33;20123;-69
2021/06/20 06:09:38;;;;;;;3.10;2.72;;;;;;;;;;4261325;33;20234;-69
2021/06/20 06:12:05;;;;;;;4.20;3.55;;;;;;;;;;4274449;33;20484;-69
2021/06/20 06:14:31;;;;;;;7.93;3.85;;;;;;;;;;4274525;33;20120;-69
2021/06/20 06:16:57;;;;;;;7.05;3.25;;;;;;;;;;4274660;33;20092;-69
2021/06/20 06:19:23;;;;;;;4.43;3.42;;;;;;;;;;4274140;33;20123;-69
2021/06/20 06:21:49;;;;;;;4.32;3.75;;;;;;;;;;4274666;33;20155;-69
2021/06/20 06:24:15;;;;;;;6.50;3.30;;;;;;;;;;4274515;33;20211;-69
2021/06/20 06:26:41;;;;;;;5.45;2.90;;;;;;;;;;4261013;33;20114;-70
2021/06/20 06:29:07;;;;;;;6.18;2.87;;;;;;;;;;4274130;33;20558;-70
2021/06/20 06:31:35;;;;;;;5.47;3.40;;;;;;;;;;4261107;33;20205;-70
2021/06/20 06:34:02;;;;;;;8.30;3.45;;;;;;;;;;4274259;33;20196;-70
2021/06/20 06:36:28;;;;;;;6.70;3.55;;;;;;;;;;4274377;33;20098;-70
2021/06/20 06:38:54;;;;;;;8.05;4.25;;;;;;;;;;4274122;33;20116;-69
2021/06/20 06:41:19;;;;;;;5.32;3.47;;;;;;;;;;4274235;33;20123;-70
2021/06/20 06:43:45;;;;;;;7.43;3.22;;;;;;;;;;4274010;33;20218;-70
2021/06/20 06:46:11;;;;;;;13.70;4.62;;;;;;;;;;4274288;33;20212;-69
2021/06/20 06:48:37;;;;;;;5.97;2.83;;;;;;;;;;4260949;33;20135;-70
2021/06/20 06:51:04;;;;;;;3.20;2.90;;;;;;;;;;4274123;33;20147;-69
2021/06/20 06:53:30;;;;;;;6.20;2.87;;;;;;;;;;4274120;33;20248;-70
2021/06/20 06:55:57;;;;;;;4.78;3.22;;;;;;;;;;4274388;33;20579;-70
2021/06/20 06:58:23;;;;;;;3.37;3.08;;;;;;;;;;4274106;33;20131;-70
2021/06/20 07:00:49;;;;;;;7.07;3.08;;;;;;;;;;4273955;33;20131;-70
2021/06/20 07:03:15;;;;;;;4.62;3.00;;;;;;;;;;4273861;33;20125;-70
2021/06/20 07:05:41;;;;;;;4.53;3.42;;;;;;;;;;4274278;33;20197;-69
2021/06/20 07:08:07;;;;;;;5.28;3.10;;;;;;;;;;4273943;33;20479;-69
2021/06/20 07:10:33;;;;;;;5.20;3.40;;;;;;;;;;4260545;33;20127;-69
2021/06/20 07:12:59;;;;;;;9.50;3.28;;;;;;;;;;4273924;33;20143;-70
2021/06/20 07:15:25;;;;;;;3.25;2.95;;;;;;;;;;4273788;33;20199;-69
2021/06/20 07:17:52;;;;;;;3.80;3.10;;;;;;;;;;4273654;33;20206;-69
2021/06/20 07:20:18;;;;;;;9.80;3.58;;;;;;;;;;4273631;33;20123;-69
2021/06/20 07:22:45;;;;;;;4.32;3.30;;;;;;;;;;4274002;33;20468;-69
2021/06/20 07:25:16;;;;;;;5.85;3.15;;;;;;;;;;4275855;33;20112;-70
2021/06/20 07:27:42;;;;;;;8.13;3.10;;;;;;;;;;4276134;33;20112;-70
2021/06/20 07:30:12;;;;;;;3.67;2.78;;;;;;;;;;4275968;33;20170;-69
2021/06/20 07:32:40;;;;;;;2.45;1.92;;;;;;;;;;4275951;33;20109;-69
2021/06/20 07:35:07;;;;;;;5.53;3.20;;;;;;;;;;4276130;33;20218;-69
2021/06/20 07:37:33;;;;;;;6.22;2.92;;;;;;;;;;4275952;33;20139;-69
2021/06/20 07:39:59;;;;;;;6.07;3.60;;;;;;;;;;4262380;33;20505;-70
2021/06/20 07:42:25;;;;;;;8.65;3.42;;;;;;;;;;4262633;33;20480;-70
2021/06/20 07:44:51;;;;;;;5.53;3.37;;;;;;;;;;4275559;33;20123;-70
2021/06/20 07:47:17;;;;;;;4.30;3.33;;;;;;;;;;4275747;33;20206;-70
2021/06/20 07:49:43;;;;;;;5.00;2.97;;;;;;;;;;4275870;33;20536;-70
2021/06/20 07:52:09;;;;;;;3.85;3.10;;;;;;;;;;4275485;33;20136;-70
2021/06/20 07:54:35;;;;;;;7.40;2.90;;;;;;;;;;4275985;33;20100;-70
2021/06/20 07:57:01;;;;;;;4.87;2.83;;;;;;;;;;4275594;33;20535;-70
2021/06/20 07:59:27;;;;;;;5.70;3.37;;;;;;;;;;4276128;33;20431;-74
2021/06/20 08:01:53;;;;;;;4.15;3.05;;;;;;;;;;4275859;33;20124;-69
2021/06/20 08:04:19;;;;;;;3.60;2.85;;;;;;;;;;4275682;33;20092;-69
2021/06/20 08:06:45;;;;;;;4.62;2.80;;;;;;;;;;4275720;33;20523;-70
2021/06/20 08:09:11;;;;;;;2.50;2.20;;;;;;;;;;4275737;33;20152;-70
2021/06/20 08:11:36;;;;;;;3.33;2.92;;;;;;;;;;4275688;33;20135;-69
2021/06/20 08:14:03;;;;;;;4.93;3.10;;;;;;;;;;4275706;33;20579;-73
2021/06/20 08:16:30;;;;;;;3.42;3.12;;;;;;;;;;4275882;33;20122;-71
2021/06/20 08:18:56;;;;;;;2.58;2.37;;;;;;;;;;4262215;33;20112;-71
2021/06/20 08:21:22;;;;;;;11.45;3.17;;;;;;;;;;4275674;33;20200;-71
2021/06/20 08:23:49;;;;;;;5.07;3.00;;;;;;;;;;4275980;33;20120;-69
2021/06/20 08:26:15;;;;;;;3.20;2.90;;;;;;;;;;4275755;33;20088;-69
2021/06/20 08:28:42;;;;;;;3.17;2.87;;;;;;;;;;4275812;33;20180;-69
2021/06/20 08:31:08;;;;;;;5.68;3.40;;;;;;;;;;4275894;33;20124;-70
2021/06/20 08:33:34;;;;;;;4.75;3.42;;;;;;;;;;4275460;33;20121;-70
2021/06/20 08:36:00;;;;;;;4.43;2.80;;;;;;;;;;4274359;33;20112;-70
2021/06/20 08:38:26;;;;;;;3.00;2.70;;;;;;;;;;4275045;33;20787;-70
2021/06/20 08:40:55;;;;;;;3.30;2.90;;;;;;;;;;4275303;33;20187;-70
2021/06/20 08:43:22;;;;;;;5.65;2.78;;;;;;;;;;4275015;33;20084;-70
2021/06/20 08:45:52;;;;;;;5.37;2.87;;;;;;;;;;4275278;33;20124;-70
2021/06/20 08:48:18;;;;;;;5.03;2.65;;;;;;;;;;4275439;33;20199;-70
2021/06/20 08:50:44;;;;;;;3.58;3.00;;;;;;;;;;4275221;33;20156;-70
2021/06/20 08:53:10;;;;;;;3.90;2.95;;;;;;;;;;4256457;33;20107;-70
2021/06/20 08:55:36;;;;;;;3.22;2.83;;;;;;;;;;4262061;33;20143;-70
2021/06/20 08:58:16;;;;;;;3.25;2.45;;;;;;;;;;4275169;33;20112;-70
2021/06/20 09:00:42;;;;;;;4.12;2.58;;;;;;;;;;4275244;33;20461;-70
2021/06/20 09:03:08;;;;;;;3.30;3.00;;;;;;;;;;4275250;33;20194;-70
2021/06/20 09:05:34;;;;;;;5.95;3.67;;;;;;;;;;4275172;33;20119;-70
2021/06/20 09:08:00;;;;;;;6.93;2.42;;;;;;;;;;4261765;33;20602;-70
2021/06/20 09:10:28;;;;;;;1.50;1.40;;;;;;;;;;4275076;33;20116;-69
2021/06/20 09:12:56;;;;;;;4.40;2.90;;;;;;;;;;4275233;33;20124;-69
2021/06/20 09:15:24;;;;;;;3.83;2.10;;;;;;;;;;4275158;33;20431;-70
2021/06/20 09:17:54;;;;;;;2.72;2.53;;;;;;;;;;4275049;33;20519;-70
2021/06/20 09:20:51;;;;;;;2.58;2.37;;;;;;;;;;4275012;33;20202;-70
2021/06/20 09:23:17;;;;;;;4.97;3.28;;;;;;;;;;4263414;33;20120;-69
2021/06/20 09:25:45;;;;;;;3.10;2.85;;;;;;;;;;4274883;33;20123;-69
2021/06/20 09:28:11;;;;;;;3.30;3.00;;;;;;;;;;4241782;33;20101;-69
2021/06/20 09:30:48;;;;;;;4.65;2.28;;;;;;;;;;4274648;33;20547;-69
2021/06/20 09:33:14;;;;;;;6.28;3.00;;;;;;;;;;4274853;33;20127;-69
2021/06/20 09:35:47;;;;;;;8.02;2.97;;;;;;;;;;4274865;33;20128;-69
2021/06/20 09:38:20;;;;;;;5.15;3.35;;;;;;;;;;4274777;33;20084;-69
2021/06/20 09:40:46;;;;;;;3.10;2.80;;;;;;;;;;4262108;33;20119;-69
2021/06/20 09:43:16;;;;;;;3.47;3.00;;;;;;;;;;4274643;33;20551;-69
2021/06/20 09:45:46;;;;;;;2.47;2.28;;;;;;;;;;4274263;33;20122;-69
2021/06/20 09:48:22;;;;;;;4.25;2.87;;;;;;;;;;4274664;33;20128;-68
2021/06/20 09:50:48;;;;;;;4.43;3.15;;;;;;;;;;4275038;33;20202;-69
2021/06/20 09:53:14;;;;;;;3.62;3.15;;;;;;;;;;4261420;33;20519;-68
2021/06/20 09:55:40;;;;;;;3.30;3.00;;;;;;;;;;4261402;33;20139;-68
2021/06/20 09:58:06;;;;;;;4.07;3.15;;;;;;;;;;4249807;33;20115;-68
2021/06/20 10:00:42;;;;;;;3.35;2.97;;;;;;;;;;4261620;33;20135;-68
2021/06/20 10:03:09;;;;;;;3.22;2.85;;;;;;;;;;4274492;33;20084;-69
2021/06/20 10:05:34;;;;;;;4.87;2.87;;;;;;;;;;4274449;33;20100;-69
2021/06/20 10:08:01;;;;;;;4.53;2.70;;;;;;;;;;4274494;33;20104;-68
2021/06/20 10:10:27;;;;;;;3.28;2.67;;;;;;;;;;4274540;33;20163;-67
2021/06/20 10:12:53;;;;;;;4.85;3.00;;;;;;;;;;4261467;33;20135;-72
2021/06/20 10:15:19;;;;;;;7.95;3.00;;;;;;;;;;4261260;33;20253;-71
2021/06/20 10:17:50;;;;;;;5.65;2.70;;;;;;;;;;4261299;33;20092;-73
2021/06/20 10:20:16;;;;;;;4.57;3.20;;;;;;;;;;4249187;33;20539;-73
2021/06/20 10:22:47;;;;;;;5.18;2.75;;;;;;;;;;4248721;33;20130;-73
2021/06/20 10:25:26;;;;;;;6.37;3.22;;;;;;;;;;4273509;33;20206;-73
2021/06/20 10:28:25;;;;;;;3.72;3.10;;;;;;;;;;4260343;33;20120;-73
2021/06/20 10:30:51;;;;;;;4.12;3.20;;;;;;;;;;4260021;33;20131;-72
2021/06/20 10:33:21;;;;;;;3.67;2.62;;;;;;;;;;4248987;33;20134;-72
2021/06/20 10:36:04;;;;;;;3.50;2.78;;;;;;;;;;4274595;33;20133;-72
2021/06/20 10:38:42;;;;;;;4.07;2.92;;;;;;;;;;4274218;33;20124;-72
2021/06/20 10:41:20;;;;;;;3.33;2.92;;;;;;;;;;4274448;33;20089;-72
2021/06/20 10:44:00;;;;;;;3.00;2.70;;;;;;;;;;4274091;33;20112;-72
2021/06/20 10:46:26;;;;;;;3.83;2.80;;;;;;;;;;4261073;33;20130;-72
2021/06/20 10:48:52;;;;;;;10.20;2.90;;;;;;;;;;4274378;33;20460;-71
2021/06/20 10:51:19;;;;;;;4.20;3.22;;;;;;;;;;4261100;33;20124;-72
2021/06/20 10:53:45;;;;;;;3.10;2.80;;;;;;;;;;4274298;33;20132;-71
2021/06/20 10:56:26;;;;;;;5.35;3.00;;;;;;;;;;4274132;33;20570;-71
2021/06/20 10:58:53;;;;;;;3.60;3.30;;;;;;;;;;4262067;33;20097;-72
2021/06/20 11:01:20;;;;;;;3.83;2.83;;;;;;;;;;4276449;33;20124;-71
2021/06/20 11:04:07;;;;;;;3.45;3.10;;;;;;;;;;4276112;33;20093;-71
2021/06/20 11:06:33;;;;;;;4.22;3.17;;;;;;;;;;4264997;33;20557;-70
2021/06/20 11:09:04;;;;;;;7.43;4.30;;;;;;;;;;4251278;33;20109;-70
2021/06/20 11:11:34;;;;;;;5.45;3.58;;;;;;;;;;4276284;33;20105;-70
2021/06/20 11:14:07;;;;;;;4.35;3.00;;;;;;;;;;4276013;33;20116;-70
2021/06/20 11:16:38;;;;;;;3.28;2.97;;;;;;;;;;4276143;33;20613;-70
2021/06/20 11:19:20;;;;;;;6.50;2.90;;;;;;;;;;4276016;33;20121;-70
2021/06/20 11:21:49;;;;;;;3.80;3.40;;;;;;;;;;4276155;33;20108;-70
2021/06/20 11:24:17;;;;;;;4.65;3.10;;;;;;;;;;4262816;33;20218;-71
2021/06/20 11:27:02;;;;;;;5.68;3.17;;;;;;;;;;4262829;33;20103;-69
2021/06/20 11:29:41;;;;;;;2.87;2.67;;;;;;;;;;4275890;33;20092;-69
2021/06/20 11:32:13;;;;;;;5.75;3.12;;;;;;;;;;4276262;33;20448;-69
2021/06/20 11:34:45;;;;;;;3.58;3.22;;;;;;;;;;4262814;33;20127;-69
2021/06/20 11:37:19;;;;;;;3.90;3.45;;;;;;;;;;4276044;33;20115;-70
2021/06/20 11:39:47;;;;;;;5.43;3.47;;;;;;;;;;4276184;33;20093;-70
2021/06/20 11:42:22;;;;;;;2.47;2.28;;;;;;;;;;4275878;33;20112;-71
2021/06/20 11:44:56;;;;;;;4.00;3.17;;;;;;;;;;4275618;33;20515;-71
2021/06/20 11:47:35;;;;;;;4.03;3.22;;;;;;;;;;4275995;33;20142;-71
2021/06/20 11:50:18;;;;;;;4.35;3.08;;;;;;;;;;4275739;33;20103;-70
2021/06/20 11:52:49;;;;;;;6.95;3.30;;;;;;;;;;4275882;33;20543;-71
2021/06/20 11:55:20;;;;;;;3.47;3.17;;;;;;;;;;4262907;33;20176;-70
2021/06/20 11:57:46;;;;;;;8.23;3.10;;;;;;;;;;4262367;33;20181;-71
2021/06/20 12:00:14;;;;;;;4.78;2.85;;;;;;;;;;4262624;33;20108;-71
2021/06/20 12:02:40;;;;;;;6.53;3.42;;;;;;;;;;4262724;33;20555;-71
2021/06/20 12:05:13;;;;;;;5.12;3.22;;;;;;;;;;4275400;33;20277;-71
2021/06/20 12:07:39;;;;;;;3.75;3.20;;;;;;;;;;4275729;33;20111;-71
2021/06/20 12:10:05;;;;;;;4.53;3.87;;;;;;;;;;4262307;33;20132;-70
2021/06/20 12:12:32;;;;;;;4.65;2.92;;;;;;;;;;4275894;33;20116;-71
2021/06/20 12:15:02;;;;;;;5.30;3.55;;;;;;;;;;4275658;33;20106;-70
2021/06/20 12:17:28;;;;;;;6.95;3.42;;;;;;;;;;4276080;33;20194;-70
2021/06/20 12:19:55;;;;;;;5.57;3.67;;;;;;;;;;4262468;33;20100;-71
2021/06/20 12:22:22;;;;;;;4.07;3.00;;;;;;;;;;4275587;33;20131;-70
2021/06/20 12:24:56;;;;;;;3.95;3.17;;;;;;;;;;4275587;33;20211;-70
2021/06/20 12:27:36;;;;;;;4.45;3.33;;;;;;;;;;4263196;33;20087;-70
2021/06/20 12:30:16;;;;;;;5.43;3.17;;;;;;;;;;4275463;33;20123;-70
2021/06/20 12:32:43;;;;;;;5.57;3.22;;;;;;;;;;4275528;33;20210;-70
2021/06/20 12:35:09;;;;;;;6.20;3.50;;;;;;;;;;4275650;33;20564;-70
2021/06/20 12:37:42;;;;;;;3.00;2.70;;;;;;;;;;4275471;33;20129;-70
2021/06/20 12:40:18;;;;;;;2.55;2.35;;;;;;;;;;4275434;33;20186;-70
2021/06/20 12:42:46;;;;;;;4.40;1.73;;;;;;;;;;4275806;33;20440;-69
2021/06/20 12:45:26;;;;;;;4.10;3.20;;;;;;;;;;4275094;33;20139;-69
2021/06/20 12:47:54;;;;;;;3.25;2.95;;;;;;;;;;4275435;33;20107;-70
2021/06/20 12:50:33;;;;;;;3.65;2.83;;;;;;;;;;4275204;33;20202;-70
2021/06/20 12:53:00;;;;;;;5.18;3.53;;;;;;;;;;4275202;33;20603;-70
2021/06/20 12:55:27;;;;;;;7.00;3.20;;;;;;;;;;4275266;33;20127;-70
2021/06/20 12:57:59;;;;;;;3.60;3.12;;;;;;;;;;4260511;33;20104;-69
2021/06/20 13:00:27;;;;;;;6.70;3.05;;;;;;;;;;4262012;33;20515;-70
2021/06/20 13:02:54;;;;;;;4.68;3.47;;;;;;;;;;4250260;33;20113;-70
2021/06/20 13:05:40;;;;;;;4.70;2.90;;;;;;;;;;4261955;33;20097;-70
2021/06/20 13:08:08;;;;;;;4.47;2.50;;;;;;;;;;4275172;33;20112;-69
2021/06/20 13:10:35;;;;;;;8.25;2.60;;;;;;;;;;4275168;33;20175;-69
2021/06/20 13:13:01;;;;;;;3.42;3.08;;;;;;;;;;4261921;33;20146;-70
2021/06/20 13:15:27;;;;;;;5.65;3.10;;;;;;;;;;4275381;33;20120;-70
2021/06/20 13:17:53;;;;;;;4.90;3.33;;;;;;;;;;4275039;33;20559;-69
2021/06/20 13:20:19;;;;;;;3.92;3.17;;;;;;;;;;4274821;33;20131;-70
2021/06/20 13:22:45;;;;;;;4.15;3.30;;;;;;;;;;4274773;33;20211;-70
2021/06/20 13:25:12;;;;;;;4.93;3.28;;;;;;;;;;4261496;33;20207;-70
2021/06/20 13:27:38;;;;;;;4.70;3.00;;;;;;;;;;4261909;33;20533;-70
2021/06/20 13:30:05;;;;;;;7.07;3.83;;;;;;;;;;4261948;33;20112;-70
2021/06/20 13:32:31;;;;;;;5.22;3.53;;;;;;;;;;4261806;33;20546;-70
2021/06/20 13:34:57;;;;;;;5.55;2.90;;;;;;;;;;4261942;33;20123;-69
2021/06/20 13:37:24;;;;;;;3.37;2.75;;;;;;;;;;4274771;33;20542;-69
2021/06/20 13:39:50;;;;;;;5.40;3.15;;;;;;;;;;4274833;33;20287;-70
2021/06/20 13:42:16;;;;;;;3.95;3.22;;;;;;;;;;4274888;33;20504;-69
2021/06/20 13:44:42;;;;;;;4.50;3.00;;;;;;;;;;4274706;33;20452;-69
2021/06/20 13:47:08;;;;;;;5.90;2.90;;;;;;;;;;4274917;33;20195;-69
2021/06/20 13:49:34;;;;;;;7.82;3.00;;;;;;;;;;4274367;33;20115;-69
2021/06/20 13:52:00;;;;;;;2.95;2.72;;;;;;;;;;4274739;33;20127;-69
2021/06/20 13:54:26;;;;;;;3.17;2.80;;;;;;;;;;4261567;33;20175;-69
2021/06/20 13:56:53;;;;;;;2.83;2.58;;;;;;;;;;4274822;33;20139;-69
2021/06/20 13:59:22;;;;;;;4.20;3.10;;;;;;;;;;4274749;33;20107;-69
2021/06/20 14:01:48;;;;;;;4.25;3.70;;;;;;;;;;4274721;33;20237;-69
2021/06/20 14:04:14;;;;;;;5.68;3.08;;;;;;;;;;4274426;33;20127;-69
2021/06/20 14:06:40;;;;;;;6.18;3.78;;;;;;;;;;4274558;33;20115;-68
2021/06/20 14:09:07;;;;;;;8.77;3.30;;;;;;;;;;4274545;33;20110;-68
2021/06/20 14:11:34;;;;;;;3.50;3.03;;;;;;;;;;4274745;33;20100;-69
2021/06/20 14:14:00;;;;;;;3.75;3.30;;;;;;;;;;4274595;33;20103;-69
2021/06/20 14:16:26;;;;;;;3.70;2.97;;;;;;;;;;4274574;33;20141;-68
2021/06/20 14:18:52;;;;;;;5.22;3.22;;;;;;;;;;4274514;33;20515;-68
2021/06/20 14:21:18;;;;;;;6.93;3.28;;;;;;;;;;4274613;33;20119;-69
2021/06/20 14:23:44;;;;;;;3.17;2.83;;;;;;;;;;4261307;33;20108;-69
2021/06/20 14:26:10;;;;;;;3.47;3.15;;;;;;;;;;4274337;33;20096;-69
2021/06/20 14:28:36;;;;;;;3.67;3.10;;;;;;;;;;4261213;33;20135;-70
2021/06/20 14:31:03;;;;;;;5.18;2.78;;;;;;;;;;4274216;33;20119;-68
2021/06/20 14:33:28;;;;;;;3.20;2.90;;;;;;;;;;4274167;33;20115;-68
2021/06/20 14:35:54;;;;;;;4.40;3.17;;;;;;;;;;4274146;33;20565;-68
2021/06/20 14:38:20;;;;;;;8.52;4.12;;;;;;;;;;4274381;33;20293;-68
2021/06/20 14:40:48;;;;;;;8.75;3.72;;;;;;;;;;4261349;33;20116;-67
2021/06/20 14:43:14;;;;;;;7.75;3.70;;;;;;;;;;4273846;33;20096;-67
2021/06/20 14:45:40;;;;;;;5.68;3.78;;;;;;;;;;4274022;33;20108;-67
2021/06/20 14:48:06;;;;;;;4.60;3.80;;;;;;;;;;4274011;33;20108;-66
2021/06/20 14:50:33;;;;;;;4.05;3.60;;;;;;;;;;4261120;33;20158;-68
2021/06/20 14:52:59;;;;;;;14.43;3.60;;;;;;;;;;4274198;33;20515;-68
2021/06/20 14:55:25;;;;;;;7.60;3.70;;;;;;;;;;4274065;33;20127;-68
2021/06/20 14:57:51;;;;;;;5.75;3.78;;;;;;;;;;4260713;33;20131;-67
2021/06/20 15:00:17;;;;;;;5.22;3.22;;;;;;;;;;4274243;33;20208;-68
2021/06/20 15:02:44;;;;;;;4.75;2.83;;;;;;;;;;4274315;33;20230;-68
2021/06/20 15:05:11;;;;;;;7.03;4.72;;;;;;;;;;4274055;33;20539;-68
2021/06/20 15:07:38;;;;;;;7.37;3.47;;;;;;;;;;4273986;33;20100;-68
2021/06/20 15:10:04;;;;;;;8.68;3.70;;;;;;;;;;4273915;33;20592;-69
2021/06/20 15:12:30;;;;;;;5.70;3.10;;;;;;;;;;4250092;33;20130;-68
2021/06/20 15:14:56;;;;;;;7.20;3.90;;;;;;;;;;4247893;33;20516;-68